createdAt,value
2022-09-10T00:00:11.904Z,14.43
2022-09-10T00:02:43.321Z,14.45
2022-09-10T00:05:18.733Z,14.38
2022-09-10T00:07:49.372Z,14.49
2022-09-10T00:10:20.606Z,14.38
2022-09-10T00:12:56.740Z,14.46
2022-09-10T00:15:36.093Z,14.19
2022-09-10T00:18:09.417Z,14.35
2022-09-10T00:20:49.121Z,14.31
2022-09-10T00:26:08.959Z,14.16
2022-09-10T00:28:44.807Z,14.10
2022-09-10T00:31:29.565Z,14.21
2022-09-10T00:34:14.750Z,14.15
2022-09-10T00:40:08.737Z,14.19
2022-09-10T00:42:42.240Z,14.29
2022-09-10T00:45:31.959Z,14.20
2022-09-10T00:48:35.573Z,14.27
2022-09-10T00:54:12.063Z,14.21
2022-09-10T00:56:43.846Z,14.09
2022-09-10T01:02:07.451Z,14.25
2022-09-10T01:04:48.775Z,14.10
2022-09-10T01:07:17.242Z,13.89
2022-09-10T01:09:50.775Z,14.29
2022-09-10T01:13:01.651Z,14.21
2022-09-10T01:15:59.217Z,14.12
2022-09-10T01:19:43.931Z,14.19
2022-09-10T01:22:36.212Z,14.24
2022-09-10T01:25:48.302Z,14.16
2022-09-10T01:28:47.460Z,14.19
2022-09-10T01:31:55.455Z,14.28
2022-09-10T01:34:49.734Z,14.27
2022-09-10T01:37:27.786Z,14.01
2022-09-10T01:40:02.262Z,14.20
2022-09-10T01:42:33.126Z,14.18
2022-09-10T01:45:19.155Z,14.13
2022-09-10T01:48:10.022Z,14.19
2022-09-10T01:51:09.043Z,14.28
2022-09-10T01:57:21.703Z,14.24
2022-09-10T02:00:29.222Z,14.25
2022-09-10T02:03:03.291Z,14.35
2022-09-10T02:05:51.023Z,14.33
2022-09-10T02:08:25.127Z,14.39
2022-09-10T02:11:08.690Z,14.35
2022-09-10T02:13:39.333Z,14.47
2022-09-10T02:16:20.983Z,14.42
2022-09-10T02:18:56.566Z,14.49
2022-09-10T02:21:35.809Z,14.50
2022-09-10T02:24:24.104Z,14.53
2022-09-10T02:26:54.775Z,14.50
2022-09-10T02:29:35.641Z,14.58
2022-09-10T02:32:10.933Z,14.59
2022-09-10T02:34:53.663Z,14.48
2022-09-10T02:37:33.661Z,14.66
2022-09-10T02:40:10.945Z,14.41
2022-09-10T02:43:01.146Z,14.55
2022-09-10T02:45:32.983Z,14.65
2022-09-10T02:48:04.734Z,14.59
2022-09-10T02:50:38.919Z,14.81
2022-09-10T02:53:09.821Z,14.85
2022-09-10T02:55:49.252Z,14.72
2022-09-10T02:58:27.486Z,14.67
2022-09-10T03:01:24.333Z,14.73
2022-09-10T03:04:11.859Z,14.75
2022-09-10T03:06:53.823Z,14.71
2022-09-10T03:09:25.064Z,14.62
2022-09-10T03:11:56.721Z,14.84
2022-09-10T03:14:26.967Z,14.87
2022-09-10T03:17:19.847Z,14.82
2022-09-10T03:19:49.319Z,14.85
2022-09-10T03:22:27.881Z,14.87
2022-09-10T03:25:03.261Z,14.77
2022-09-10T03:27:44.663Z,14.87
2022-09-10T03:30:17.126Z,14.87
2022-09-10T03:32:50.768Z,14.85
2022-09-10T03:35:21.888Z,14.91
2022-09-10T03:37:56.187Z,14.87
2022-09-10T03:40:36.544Z,14.72
2022-09-10T03:43:08.014Z,14.81
2022-09-10T03:45:39.335Z,14.65
2022-09-10T03:48:06.928Z,14.27
2022-09-10T03:50:43.503Z,14.56
2022-09-10T03:53:22.008Z,14.61
2022-09-10T03:55:51.492Z,14.57
2022-09-10T03:58:25.287Z,14.56
2022-09-10T04:01:05.126Z,14.67
2022-09-10T04:03:41.807Z,14.60
2022-09-10T04:06:37.920Z,14.51
2022-09-10T04:09:10.288Z,14.52
2022-09-10T04:11:42.494Z,14.49
2022-09-10T04:14:14.423Z,14.55
2022-09-10T04:16:46.359Z,14.42
2022-09-10T04:19:14.086Z,14.42
2022-09-10T04:21:45.223Z,14.40
2022-09-10T04:24:21.851Z,14.44
2022-09-10T04:26:52.679Z,14.19
2022-09-10T04:29:27.063Z,14.39
2022-09-10T04:32:00.109Z,14.40
2022-09-10T04:34:33.886Z,14.40
2022-09-10T04:37:01.613Z,14.38
2022-09-10T04:39:28.768Z,14.38
2022-09-10T04:41:58.441Z,14.14
2022-09-10T04:44:27.371Z,14.45
2022-09-10T04:46:55.907Z,14.38
2022-09-10T04:49:38.061Z,14.21
2022-09-10T04:52:23.214Z,14.45
2022-09-10T04:55:01.279Z,14.54
2022-09-10T04:57:29.785Z,14.42
2022-09-10T05:00:11.321Z,14.42
2022-09-10T05:02:49.742Z,14.47
2022-09-10T05:05:17.850Z,14.49
2022-09-10T05:07:46.584Z,14.46
2022-09-10T05:10:18.287Z,14.49
2022-09-10T05:12:51.343Z,14.48
2022-09-10T05:15:30.199Z,14.48
2022-09-10T05:18:01.293Z,14.47
2022-09-10T05:20:34.741Z,14.52
2022-09-10T05:23:10.608Z,14.53
2022-09-10T05:25:37.966Z,14.49
2022-09-10T05:28:07.386Z,14.48
2022-09-10T05:30:41.703Z,14.52
2022-09-10T05:36:16.741Z,14.56
2022-09-10T05:42:40.981Z,14.45
2022-09-10T05:46:06.334Z,14.50
2022-09-10T05:48:43.035Z,14.53
2022-09-10T05:58:14.124Z,14.61
2022-09-10T06:01:39.443Z,14.39
2022-09-10T06:04:39.063Z,14.59
2022-09-10T06:07:31.812Z,14.62
2022-09-10T06:14:00.864Z,14.60
2022-09-10T06:24:31.183Z,14.77
2022-09-10T06:27:43.281Z,14.80
2022-09-10T06:31:10.282Z,14.91
2022-09-10T06:34:38.067Z,14.83
2022-09-10T06:40:09.843Z,15.00
2022-09-10T06:43:15.311Z,14.92
2022-09-10T06:46:24.843Z,15.02
2022-09-10T06:49:15.192Z,14.99
2022-09-10T06:51:53.955Z,15.06
2022-09-10T06:54:51.842Z,14.90
2022-09-10T06:57:19.083Z,14.94
2022-09-10T07:00:13.264Z,15.13
2022-09-10T07:08:26.181Z,15.22
2022-09-10T07:10:59.701Z,15.20
2022-09-10T07:13:36.123Z,15.32
2022-09-10T07:16:27.146Z,15.16
2022-09-10T07:19:04.641Z,15.36
2022-09-10T07:22:01.352Z,15.39
2022-09-10T07:24:30.071Z,15.35
2022-09-10T07:27:06.108Z,15.43
2022-09-10T07:29:39.231Z,15.56
2022-09-10T07:32:11.634Z,15.51
2022-09-10T07:34:40.511Z,15.44
2022-09-10T07:37:10.621Z,15.33
2022-09-10T07:45:17.280Z,15.74
2022-09-10T07:47:48.563Z,15.69
2022-09-10T07:50:16.673Z,15.75
2022-09-10T07:52:44.262Z,15.80
2022-09-10T07:55:12.154Z,15.91
2022-09-10T07:57:40.912Z,15.63
2022-09-10T08:00:15.302Z,15.99
2022-09-10T08:02:43.751Z,16.01
2022-09-10T08:05:12.111Z,16.14
2022-09-10T08:07:40.621Z,16.15
2022-09-10T08:10:10.237Z,15.99
2022-09-10T08:12:40.005Z,16.31
2022-09-10T08:15:10.981Z,16.41
2022-09-10T08:17:38.683Z,16.43
2022-09-10T08:20:08.587Z,16.55
2022-09-10T08:22:36.273Z,16.44
2022-09-10T08:25:03.868Z,16.39
2022-09-10T08:27:34.751Z,16.66
2022-09-10T08:30:01.830Z,16.69
2022-09-10T08:32:29.140Z,16.61
2022-09-10T08:34:56.399Z,16.81
2022-09-10T08:37:23.546Z,17.06
2022-09-10T08:39:50.770Z,17.12
2022-09-10T08:42:22.794Z,17.23
2022-09-10T08:44:55.032Z,17.12
2022-09-10T08:47:31.307Z,17.17
2022-09-10T08:50:11.921Z,16.76
2022-09-10T08:52:44.772Z,16.95
2022-09-10T08:55:17.824Z,16.87
2022-09-10T08:57:50.113Z,17.03
2022-09-10T09:00:34.792Z,17.10
2022-09-10T09:03:06.312Z,17.09
2022-09-10T09:05:58.911Z,17.24
2022-09-10T09:08:35.113Z,17.40
2022-09-10T09:11:21.003Z,17.57
2022-09-10T09:14:08.947Z,17.48
2022-09-10T09:17:06.247Z,17.43
2022-09-10T09:19:35.071Z,17.59
2022-09-10T09:22:40.104Z,17.76
2022-09-10T09:25:30.587Z,17.81
2022-09-10T09:27:58.602Z,17.79
2022-09-10T09:30:35.886Z,18.08
2022-09-10T09:33:17.284Z,17.81
2022-09-10T09:36:02.165Z,18.31
2022-09-10T09:38:41.672Z,18.38
2022-09-10T09:41:24.711Z,18.14
2022-09-10T09:44:04.722Z,18.43
2022-09-10T09:46:31.825Z,18.17
2022-09-10T09:49:01.911Z,18.12
2022-09-10T09:51:35.913Z,17.91
2022-09-10T09:57:01.833Z,18.09
2022-09-10T09:59:31.707Z,18.02
2022-09-10T10:02:24.259Z,17.98
2022-09-10T10:05:07.471Z,17.95
2022-09-10T10:07:39.192Z,17.99
2022-09-10T10:10:08.442Z,18.17
2022-09-10T10:12:43.153Z,17.99
2022-09-10T10:15:38.217Z,17.98
2022-09-10T10:18:23.599Z,17.91
2022-09-10T10:21:13.993Z,18.02
2022-09-10T10:23:43.241Z,18.21
2022-09-10T10:26:24.281Z,18.03
2022-09-10T10:28:56.202Z,18.53
2022-09-10T10:31:23.935Z,18.70
2022-09-10T10:34:22.483Z,18.80
2022-09-10T10:37:15.141Z,18.37
2022-09-10T10:39:48.716Z,18.90
2022-09-10T10:42:56.187Z,18.82
2022-09-10T10:45:52.142Z,18.87
2022-09-10T10:48:35.363Z,18.85
2022-09-10T10:51:09.842Z,18.73
2022-09-10T10:53:58.811Z,18.60
2022-09-10T10:56:36.443Z,19.08
2022-09-10T10:59:30.307Z,18.98
2022-09-10T11:02:25.517Z,18.88
2022-09-10T11:04:55.522Z,18.90
2022-09-10T11:07:39.595Z,18.69
2022-09-10T11:10:19.990Z,18.63
2022-09-10T11:12:51.837Z,18.72
2022-09-10T11:15:29.382Z,18.68
2022-09-10T11:18:07.476Z,18.62
2022-09-10T11:20:50.354Z,18.57
2022-09-10T11:23:46.428Z,18.54
2022-09-10T11:26:27.787Z,18.38
2022-09-10T11:29:21.269Z,18.54
2022-09-10T11:32:26.200Z,18.40
2022-09-10T11:35:04.434Z,18.69
2022-09-10T11:37:40.791Z,19.09
2022-09-10T11:40:18.481Z,18.90
2022-09-10T11:42:53.440Z,19.74
2022-09-10T11:45:32.274Z,19.67
2022-09-10T11:48:29.451Z,19.49
2022-09-10T11:51:07.586Z,19.16
2022-09-10T11:53:37.402Z,18.96
2022-09-10T11:56:28.906Z,19.43
2022-09-10T11:59:22.226Z,19.52
2022-09-10T12:02:30.993Z,19.55
2022-09-10T12:05:08.325Z,19.59
2022-09-10T12:08:11.425Z,19.42
2022-09-10T12:11:17.164Z,19.66
2022-09-10T12:13:46.246Z,19.57
2022-09-10T12:16:35.243Z,19.23
2022-09-10T12:19:08.753Z,19.51
2022-09-10T12:21:41.929Z,19.33
2022-09-10T12:24:32.617Z,19.21
2022-09-10T12:27:05.607Z,18.95
2022-09-10T12:29:38.203Z,19.31
2022-09-10T12:32:20.284Z,18.97
2022-09-10T12:34:51.683Z,18.88
2022-09-10T12:37:28.915Z,19.26
2022-09-10T12:40:25.948Z,19.47
2022-09-10T12:42:59.162Z,19.39
2022-09-10T12:46:16.819Z,18.75
2022-09-10T12:48:59.153Z,18.79
2022-09-10T12:51:41.460Z,19.07
2022-09-10T12:54:33.244Z,18.48
2022-09-10T12:57:04.246Z,18.59
2022-09-10T13:00:02.016Z,18.20
2022-09-10T13:02:50.083Z,18.24
2022-09-10T13:05:30.831Z,18.27
2022-09-10T13:08:12.949Z,18.25
2022-09-10T13:10:43.051Z,18.48
2022-09-10T13:13:39.097Z,18.19
2022-09-10T13:16:14.806Z,18.55
2022-09-10T13:18:42.640Z,18.49
2022-09-10T13:21:32.422Z,18.64
2022-09-10T13:24:04.247Z,18.83
2022-09-10T13:26:40.253Z,18.78
2022-09-10T13:29:39.006Z,18.63
2022-09-10T13:32:19.129Z,18.71
2022-09-10T13:35:01.304Z,18.50
2022-09-10T13:37:43.702Z,18.36
2022-09-10T13:40:33.402Z,18.21
2022-09-10T13:43:20.046Z,17.89
2022-09-10T13:46:00.048Z,17.94
2022-09-10T13:48:42.021Z,17.89
2022-09-10T13:51:09.486Z,17.67
2022-09-10T13:53:41.515Z,17.91
2022-09-10T13:56:19.941Z,17.79
2022-09-10T13:58:53.927Z,17.76
2022-09-10T14:01:21.177Z,17.99
2022-09-10T14:03:48.330Z,17.80
2022-09-10T14:06:25.422Z,17.85
2022-09-10T14:09:02.180Z,18.21
2022-09-10T14:11:34.120Z,18.48
2022-09-10T14:14:13.091Z,18.53
2022-09-10T14:16:51.650Z,19.03
2022-09-10T14:19:37.932Z,18.97
2022-09-10T14:22:09.819Z,18.81
2022-09-10T14:24:40.309Z,18.89
2022-09-10T14:27:19.390Z,18.66
2022-09-10T14:29:47.089Z,18.78
2022-09-10T14:32:28.895Z,18.97
2022-09-10T14:34:56.509Z,19.28
2022-09-10T14:37:39.180Z,19.80
2022-09-10T14:40:17.994Z,19.73
2022-09-10T14:42:46.909Z,20.02
2022-09-10T14:45:40.070Z,20.49
2022-09-10T14:48:37.312Z,20.40
2022-09-10T14:51:24.974Z,20.26
2022-09-10T14:53:52.970Z,20.34
2022-09-10T14:56:33.007Z,20.11
2022-09-10T14:59:12.196Z,20.41
2022-09-10T15:01:42.320Z,19.86
2022-09-10T15:04:15.840Z,18.90
2022-09-10T15:06:46.220Z,19.37
2022-09-10T15:09:14.070Z,18.60
2022-09-10T15:11:52.504Z,19.44
2022-09-10T15:14:19.784Z,18.98
2022-09-10T15:16:49.149Z,19.26
2022-09-10T15:19:16.831Z,19.12
2022-09-10T15:21:44.219Z,19.16
2022-09-10T15:24:15.351Z,18.60
2022-09-10T15:26:42.990Z,19.02
2022-09-10T15:29:10.814Z,18.49
2022-09-10T15:31:39.061Z,18.62
2022-09-10T15:34:08.069Z,18.39
2022-09-10T15:36:37.409Z,17.92
2022-09-10T15:39:06.174Z,18.19
2022-09-10T15:41:33.341Z,18.25
2022-09-10T15:44:03.290Z,18.07
2022-09-10T15:46:30.471Z,18.57
2022-09-10T15:49:00.261Z,18.16
2022-09-10T15:51:27.327Z,18.30
2022-09-10T15:53:55.171Z,18.57
2022-09-10T15:56:27.191Z,18.47
2022-09-10T15:58:57.181Z,18.38
2022-09-10T16:01:28.407Z,18.08
2022-09-10T16:03:58.138Z,18.06
2022-09-10T16:06:28.294Z,18.08
2022-09-10T16:08:57.584Z,18.08
2022-09-10T16:11:25.728Z,17.79
2022-09-10T16:13:53.180Z,17.77
2022-09-10T16:16:22.813Z,18.03
2022-09-10T16:18:53.808Z,17.68
2022-09-10T16:21:23.551Z,17.85
2022-09-10T16:23:52.126Z,17.97
2022-09-10T16:26:24.094Z,17.51
2022-09-10T16:28:52.989Z,17.59
2022-09-10T16:31:28.438Z,17.66
2022-09-10T16:33:58.934Z,18.00
2022-09-10T16:36:27.422Z,17.88
2022-09-10T16:38:56.528Z,17.85
2022-09-10T16:41:24.975Z,17.57
2022-09-10T16:43:52.372Z,17.81
2022-09-10T16:46:19.639Z,17.86
2022-09-10T16:48:47.367Z,17.69
2022-09-10T16:51:17.209Z,17.92
2022-09-10T16:53:47.241Z,18.01
2022-09-10T16:56:16.439Z,17.94
2022-09-10T16:58:47.769Z,17.76
2022-09-10T17:01:16.007Z,18.10
2022-09-10T17:03:45.801Z,18.04
2022-09-10T17:06:21.982Z,18.29
2022-09-10T17:08:50.142Z,18.00
